sensor_id;sensor_type;location;lat;lon;timestamp;P1;durP1;ratioP1;P2;durP2;ratioP2
13163;SDS011;6647;53.688;10.746;2022-09-28T00:00:20;20.42;;;14.15;;
13163;SDS011;6647;53.688;10.746;2022-09-28T00:01:41;18.10;;;13.43;;
13163;SDS011;6647;53.688;10.746;2022-09-28T00:03:02;16.85;;;13.90;;
13163;SDS011;6647;53.688;10.746;2022-09-28T00:04:23;19.85;;;13.25;;
13163;SDS011;6647;53.688;10.746;2022-09-28T00:05:44;17.25;;;13.48;;
13163;SDS011;6647;53.688;10.746;2022-09-28T00:07:05;14.85;;;13.18;;
13163;SDS011;6647;53.688;10.746;2022-09-28T00:08:26;14.48;;;12.45;;
13163;SDS011;6647;53.688;10.746;2022-09-28T00:09:46;15.88;;;12.93;;
13163;SDS011;6647;53.688;10.746;2022-09-28T00:11:09;16.65;;;13.27;;
13163;SDS011;6647;53.688;10.746;2022-09-28T00:12:33;20.65;;;13.38;;
13163;SDS011;6647;53.688;10.746;2022-09-28T00:13:55;20.35;;;14.30;;
13163;SDS011;6647;53.688;10.746;2022-09-28T00:15:19;16.48;;;14.27;;
13163;SDS011;6647;53.688;10.746;2022-09-28T00:16:42;19.15;;;14.40;;
13163;SDS011;6647;53.688;10.746;2022-09-28T00:18:03;18.50;;;14.73;;
13163;SDS011;6647;53.688;10.746;2022-09-28T00:19:24;17.45;;;13.38;;
13163;SDS011;6647;53.688;10.746;2022-09-28T00:20:45;17.88;;;12.88;;
13163;SDS011;6647;53.688;10.746;2022-09-28T00:22:05;17.33;;;14.05;;
13163;SDS011;6647;53.688;10.746;2022-09-28T00:23:26;17.15;;;13.50;;
13163;SDS011;6647;53.688;10.746;2022-09-28T00:24:47;17.40;;;13.98;;
13163;SDS011;6647;53.688;10.746;2022-09-28T00:26:08;15.35;;;13.27;;
13163;SDS011;6647;53.688;10.746;2022-09-28T00:27:29;17.15;;;14.18;;
13163;SDS011;6647;53.688;10.746;2022-09-28T00:28:53;27.83;;;14.85;;
13163;SDS011;6647;53.688;10.746;2022-09-28T00:30:17;16.58;;;14.00;;
13163;SDS011;6647;53.688;10.746;2022-09-28T00:31:38;16.75;;;13.85;;
13163;SDS011;6647;53.688;10.746;2022-09-28T00:32:59;17.83;;;14.15;;
13163;SDS011;6647;53.688;10.746;2022-09-28T00:34:20;18.83;;;15.15;;
13163;SDS011;6647;53.688;10.746;2022-09-28T00:35:41;19.85;;;14.57;;
13163;SDS011;6647;53.688;10.746;2022-09-28T00:37:03;17.23;;;13.75;;
13163;SDS011;6647;53.688;10.746;2022-09-28T00:38:25;18.17;;;13.43;;
13163;SDS011;6647;53.688;10.746;2022-09-28T00:39:47;17.33;;;13.40;;
13163;SDS011;6647;53.688;10.746;2022-09-28T00:41:12;16.67;;;13.35;;
13163;SDS011;6647;53.688;10.746;2022-09-28T00:42:33;18.17;;;14.15;;
13163;SDS011;6647;53.688;10.746;2022-09-28T00:45:47;16.13;;;12.85;;
13163;SDS011;6647;53.688;10.746;2022-09-28T00:49:11;15.00;;;12.85;;
13163;SDS011;6647;53.688;10.746;2022-09-28T00:50:37;17.05;;;13.70;;
13163;SDS011;6647;53.688;10.746;2022-09-28T00:51:58;17.60;;;13.18;;
13163;SDS011;6647;53.688;10.746;2022-09-28T00:53:20;15.20;;;13.00;;
13163;SDS011;6647;53.688;10.746;2022-09-28T00:54:48;20.25;;;14.35;;
13163;SDS011;6647;53.688;10.746;2022-09-28T00:56:15;17.23;;;13.15;;
13163;SDS011;6647;53.688;10.746;2022-09-28T00:57:39;19.08;;;13.60;;
13163;SDS011;6647;53.688;10.746;2022-09-28T00:59:05;16.05;;;13.15;;
13163;SDS011;6647;53.688;10.746;2022-09-28T01:00:27;16.85;;;13.73;;
13163;SDS011;6647;53.688;10.746;2022-09-28T01:01:49;20.02;;;13.48;;
13163;SDS011;6647;53.688;10.746;2022-09-28T01:03:10;20.27;;;14.88;;
13163;SDS011;6647;53.688;10.746;2022-09-28T01:04:33;18.40;;;13.55;;
13163;SDS011;6647;53.688;10.746;2022-09-28T01:05:55;19.23;;;14.25;;
13163;SDS011;6647;53.688;10.746;2022-09-28T01:07:18;19.83;;;14.60;;
13163;SDS011;6647;53.688;10.746;2022-09-28T01:08:40;16.77;;;13.50;;
13163;SDS011;6647;53.688;10.746;2022-09-28T01:10:04;22.38;;;16.00;;
13163;SDS011;6647;53.688;10.746;2022-09-28T01:11:25;16.27;;;13.82;;
13163;SDS011;6647;53.688;10.746;2022-09-28T01:12:47;17.13;;;13.45;;
13163;SDS011;6647;53.688;10.746;2022-09-28T01:14:09;15.38;;;13.40;;
13163;SDS011;6647;53.688;10.746;2022-09-28T01:15:32;17.40;;;14.45;;
13163;SDS011;6647;53.688;10.746;2022-09-28T01:17:06;17.58;;;14.90;;
13163;SDS011;6647;53.688;10.746;2022-09-28T01:21:44;18.55;;;14.57;;
13163;SDS011;6647;53.688;10.746;2022-09-28T01:25:12;20.92;;;16.40;;
13163;SDS011;6647;53.688;10.746;2022-09-28T01:26:45;18.77;;;14.85;;
13163;SDS011;6647;53.688;10.746;2022-09-28T01:28:14;20.50;;;14.80;;
13163;SDS011;6647;53.688;10.746;2022-09-28T01:29:56;18.55;;;14.88;;
13163;SDS011;6647;53.688;10.746;2022-09-28T01:31:25;20.83;;;15.50;;
13163;SDS011;6647;53.688;10.746;2022-09-28T01:32:58;21.88;;;15.00;;
13163;SDS011;6647;53.688;10.746;2022-09-28T01:34:27;19.70;;;14.80;;
13163;SDS011;6647;53.688;10.746;2022-09-28T01:35:55;17.95;;;14.27;;
13163;SDS011;6647;53.688;10.746;2022-09-28T01:37:37;20.50;;;14.77;;
13163;SDS011;6647;53.688;10.746;2022-09-28T01:39:23;18.60;;;14.15;;
13163;SDS011;6647;53.688;10.746;2022-09-28T01:40:50;16.65;;;14.20;;
13163;SDS011;6647;53.688;10.746;2022-09-28T01:42:15;21.60;;;15.52;;
13163;SDS011;6647;53.688;10.746;2022-09-28T01:43:40;20.05;;;15.05;;
13163;SDS011;6647;53.688;10.746;2022-09-28T01:45:08;19.73;;;15.60;;
13163;SDS011;6647;53.688;10.746;2022-09-28T01:46:36;20.75;;;14.20;;
13163;SDS011;6647;53.688;10.746;2022-09-28T01:48:01;17.75;;;14.50;;
13163;SDS011;6647;53.688;10.746;2022-09-28T01:49:26;20.90;;;14.57;;
13163;SDS011;6647;53.688;10.746;2022-09-28T01:50:54;17.40;;;13.80;;
13163;SDS011;6647;53.688;10.746;2022-09-28T01:52:30;20.50;;;15.90;;
13163;SDS011;6647;53.688;10.746;2022-09-28T01:54:04;18.90;;;15.05;;
13163;SDS011;6647;53.688;10.746;2022-09-28T01:55:35;20.13;;;15.13;;
13163;SDS011;6647;53.688;10.746;2022-09-28T01:57:03;20.65;;;15.13;;
13163;SDS011;6647;53.688;10.746;2022-09-28T01:58:39;18.83;;;14.93;;
13163;SDS011;6647;53.688;10.746;2022-09-28T02:00:09;19.63;;;14.45;;
13163;SDS011;6647;53.688;10.746;2022-09-28T02:01:36;20.17;;;14.65;;
13163;SDS011;6647;53.688;10.746;2022-09-28T02:03:21;18.27;;;14.30;;
13163;SDS011;6647;53.688;10.746;2022-09-28T02:04:49;17.73;;;14.18;;
13163;SDS011;6647;53.688;10.746;2022-09-28T02:06:27;19.85;;;14.65;;
13163;SDS011;6647;53.688;10.746;2022-09-28T02:09:30;20.85;;;14.73;;
13163;SDS011;6647;53.688;10.746;2022-09-28T02:11:02;23.48;;;15.30;;
13163;SDS011;6647;53.688;10.746;2022-09-28T02:13:01;19.38;;;14.68;;
13163;SDS011;6647;53.688;10.746;2022-09-28T02:14:17;18.50;;;14.80;;
13163;SDS011;6647;53.688;10.746;2022-09-28T02:15:48;15.15;;;13.20;;
13163;SDS011;6647;53.688;10.746;2022-09-28T02:17:30;19.92;;;14.60;;
13163;SDS011;6647;53.688;10.746;2022-09-28T02:18:51;20.70;;;14.50;;
13163;SDS011;6647;53.688;10.746;2022-09-28T02:20:12;21.45;;;16.02;;
13163;SDS011;6647;53.688;10.746;2022-09-28T02:21:47;19.35;;;14.60;;
13163;SDS011;6647;53.688;10.746;2022-09-28T02:23:17;19.33;;;13.95;;
13163;SDS011;6647;53.688;10.746;2022-09-28T02:24:54;20.88;;;14.18;;
13163;SDS011;6647;53.688;10.746;2022-09-28T02:26:23;20.83;;;15.90;;
13163;SDS011;6647;53.688;10.746;2022-09-28T02:27:59;21.42;;;15.68;;
13163;SDS011;6647;53.688;10.746;2022-09-28T02:29:22;20.85;;;15.45;;
13163;SDS011;6647;53.688;10.746;2022-09-28T02:30:43;24.85;;;16.38;;
13163;SDS011;6647;53.688;10.746;2022-09-28T02:32:04;26.25;;;16.00;;
13163;SDS011;6647;53.688;10.746;2022-09-28T02:33:28;20.92;;;15.00;;
13163;SDS011;6647;53.688;10.746;2022-09-28T02:34:54;19.05;;;15.70;;
13163;SDS011;6647;53.688;10.746;2022-09-28T02:36:15;19.92;;;15.73;;
13163;SDS011;6647;53.688;10.746;2022-09-28T02:37:36;21.70;;;15.35;;
13163;SDS011;6647;53.688;10.746;2022-09-28T02:38:58;22.27;;;16.35;;
13163;SDS011;6647;53.688;10.746;2022-09-28T02:40:22;20.90;;;16.23;;
13163;SDS011;6647;53.688;10.746;2022-09-28T02:43:21;21.48;;;15.40;;
13163;SDS011;6647;53.688;10.746;2022-09-28T02:44:59;21.55;;;14.63;;
13163;SDS011;6647;53.688;10.746;2022-09-28T02:46:44;19.08;;;14.27;;
13163;SDS011;6647;53.688;10.746;2022-09-28T02:48:15;23.50;;;16.50;;
13163;SDS011;6647;53.688;10.746;2022-09-28T02:49:54;20.92;;;15.82;;
13163;SDS011;6647;53.688;10.746;2022-09-28T02:53:09;21.98;;;15.88;;
13163;SDS011;6647;53.688;10.746;2022-09-28T02:56:36;19.05;;;14.95;;
13163;SDS011;6647;53.688;10.746;2022-09-28T02:58:36;19.40;;;14.75;;
13163;SDS011;6647;53.688;10.746;2022-09-28T03:00:14;23.88;;;14.75;;
13163;SDS011;6647;53.688;10.746;2022-09-28T03:03:24;18.05;;;13.70;;
13163;SDS011;6647;53.688;10.746;2022-09-28T03:06:40;19.13;;;14.77;;
13163;SDS011;6647;53.688;10.746;2022-09-28T03:09:48;18.67;;;14.13;;
13163;SDS011;6647;53.688;10.746;2022-09-28T03:11:44;16.85;;;12.52;;
13163;SDS011;6647;53.688;10.746;2022-09-28T03:13:06;18.58;;;14.13;;
13163;SDS011;6647;53.688;10.746;2022-09-28T03:14:29;19.15;;;14.98;;
13163;SDS011;6647;53.688;10.746;2022-09-28T03:15:49;21.40;;;15.95;;
13163;SDS011;6647;53.688;10.746;2022-09-28T03:17:10;18.17;;;13.85;;
13163;SDS011;6647;53.688;10.746;2022-09-28T03:18:31;18.20;;;14.90;;
13163;SDS011;6647;53.688;10.746;2022-09-28T03:19:52;25.55;;;17.00;;
13163;SDS011;6647;53.688;10.746;2022-09-28T03:21:14;21.08;;;16.45;;
13163;SDS011;6647;53.688;10.746;2022-09-28T03:22:35;20.63;;;15.32;;
13163;SDS011;6647;53.688;10.746;2022-09-28T03:23:56;22.48;;;16.58;;
13163;SDS011;6647;53.688;10.746;2022-09-28T03:25:17;18.90;;;15.20;;
13163;SDS011;6647;53.688;10.746;2022-09-28T03:26:38;20.35;;;15.88;;
13163;SDS011;6647;53.688;10.746;2022-09-28T03:27:58;22.52;;;16.70;;
13163;SDS011;6647;53.688;10.746;2022-09-28T03:29:19;18.85;;;14.98;;
13163;SDS011;6647;53.688;10.746;2022-09-28T03:30:40;21.05;;;16.10;;
13163;SDS011;6647;53.688;10.746;2022-09-28T03:32:02;26.33;;;18.17;;
13163;SDS011;6647;53.688;10.746;2022-09-28T03:33:23;30.30;;;18.38;;
13163;SDS011;6647;53.688;10.746;2022-09-28T03:34:44;28.40;;;19.60;;
13163;SDS011;6647;53.688;10.746;2022-09-28T03:36:05;26.05;;;17.60;;
13163;SDS011;6647;53.688;10.746;2022-09-28T03:37:28;24.63;;;18.20;;
13163;SDS011;6647;53.688;10.746;2022-09-28T03:38:50;26.50;;;18.60;;
13163;SDS011;6647;53.688;10.746;2022-09-28T03:40:14;23.65;;;18.00;;
13163;SDS011;6647;53.688;10.746;2022-09-28T03:41:35;28.17;;;19.23;;
13163;SDS011;6647;53.688;10.746;2022-09-28T03:42:56;21.75;;;16.45;;
13163;SDS011;6647;53.688;10.746;2022-09-28T03:44:19;25.55;;;19.05;;
13163;SDS011;6647;53.688;10.746;2022-09-28T03:45:40;27.67;;;19.13;;
13163;SDS011;6647;53.688;10.746;2022-09-28T03:47:00;23.33;;;18.50;;
13163;SDS011;6647;53.688;10.746;2022-09-28T03:48:22;24.25;;;19.48;;
13163;SDS011;6647;53.688;10.746;2022-09-28T03:49:44;28.40;;;19.70;;
13163;SDS011;6647;53.688;10.746;2022-09-28T03:51:06;27.65;;;18.70;;
13163;SDS011;6647;53.688;10.746;2022-09-28T03:52:29;27.65;;;19.33;;
13163;SDS011;6647;53.688;10.746;2022-09-28T03:53:51;27.83;;;20.42;;
13163;SDS011;6647;53.688;10.746;2022-09-28T03:55:12;29.23;;;19.27;;
13163;SDS011;6647;53.688;10.746;2022-09-28T03:56:33;29.95;;;19.08;;
13163;SDS011;6647;53.688;10.746;2022-09-28T03:57:54;25.33;;;18.65;;
13163;SDS011;6647;53.688;10.746;2022-09-28T03:59:17;27.98;;;20.25;;
13163;SDS011;6647;53.688;10.746;2022-09-28T04:00:41;26.23;;;19.90;;
13163;SDS011;6647;53.688;10.746;2022-09-28T04:02:03;27.05;;;19.20;;
13163;SDS011;6647;53.688;10.746;2022-09-28T04:03:25;24.85;;;18.83;;
13163;SDS011;6647;53.688;10.746;2022-09-28T04:04:45;28.52;;;20.50;;
13163;SDS011;6647;53.688;10.746;2022-09-28T04:06:06;24.85;;;18.00;;
13163;SDS011;6647;53.688;10.746;2022-09-28T04:07:27;28.50;;;19.63;;
13163;SDS011;6647;53.688;10.746;2022-09-28T04:08:48;24.95;;;18.13;;
13163;SDS011;6647;53.688;10.746;2022-09-28T04:10:09;27.60;;;19.60;;
13163;SDS011;6647;53.688;10.746;2022-09-28T04:11:30;25.83;;;18.25;;
13163;SDS011;6647;53.688;10.746;2022-09-28T04:12:54;25.20;;;17.92;;
13163;SDS011;6647;53.688;10.746;2022-09-28T04:14:15;25.75;;;17.85;;
13163;SDS011;6647;53.688;10.746;2022-09-28T04:15:36;31.05;;;20.27;;
13163;SDS011;6647;53.688;10.746;2022-09-28T04:16:57;26.55;;;19.02;;
13163;SDS011;6647;53.688;10.746;2022-09-28T04:18:18;29.85;;;20.58;;
13163;SDS011;6647;53.688;10.746;2022-09-28T04:19:40;24.27;;;17.80;;
13163;SDS011;6647;53.688;10.746;2022-09-28T04:21:01;29.77;;;19.88;;
13163;SDS011;6647;53.688;10.746;2022-09-28T04:22:26;28.63;;;19.38;;
13163;SDS011;6647;53.688;10.746;2022-09-28T04:23:47;24.77;;;19.20;;
13163;SDS011;6647;53.688;10.746;2022-09-28T04:25:08;26.67;;;18.80;;
13163;SDS011;6647;53.688;10.746;2022-09-28T04:26:29;28.17;;;19.27;;
13163;SDS011;6647;53.688;10.746;2022-09-28T04:27:50;31.58;;;21.13;;
13163;SDS011;6647;53.688;10.746;2022-09-28T04:29:30;28.73;;;19.80;;
13163;SDS011;6647;53.688;10.746;2022-09-28T04:30:51;30.33;;;21.05;;
13163;SDS011;6647;53.688;10.746;2022-09-28T04:32:12;28.33;;;19.25;;
13163;SDS011;6647;53.688;10.746;2022-09-28T04:33:32;31.35;;;20.25;;
13163;SDS011;6647;53.688;10.746;2022-09-28T04:34:53;29.02;;;19.80;;
13163;SDS011;6647;53.688;10.746;2022-09-28T04:36:15;25.80;;;18.98;;
13163;SDS011;6647;53.688;10.746;2022-09-28T04:37:37;29.30;;;20.45;;
13163;SDS011;6647;53.688;10.746;2022-09-28T04:38:57;26.80;;;18.83;;
13163;SDS011;6647;53.688;10.746;2022-09-28T04:40:19;29.67;;;19.75;;
13163;SDS011;6647;53.688;10.746;2022-09-28T04:41:41;31.60;;;19.85;;
13163;SDS011;6647;53.688;10.746;2022-09-28T04:43:02;24.52;;;19.17;;
13163;SDS011;6647;53.688;10.746;2022-09-28T04:44:23;27.88;;;20.08;;
13163;SDS011;6647;53.688;10.746;2022-09-28T04:45:44;27.98;;;20.27;;
13163;SDS011;6647;53.688;10.746;2022-09-28T04:47:04;24.55;;;18.50;;
13163;SDS011;6647;53.688;10.746;2022-09-28T04:48:26;29.73;;;20.58;;
13163;SDS011;6647;53.688;10.746;2022-09-28T04:49:48;28.77;;;19.98;;
13163;SDS011;6647;53.688;10.746;2022-09-28T04:51:08;34.08;;;22.73;;
13163;SDS011;6647;53.688;10.746;2022-09-28T04:52:29;30.05;;;20.35;;
13163;SDS011;6647;53.688;10.746;2022-09-28T04:53:50;29.85;;;21.15;;
13163;SDS011;6647;53.688;10.746;2022-09-28T04:55:11;33.42;;;21.55;;
13163;SDS011;6647;53.688;10.746;2022-09-28T04:56:36;34.53;;;19.33;;
13163;SDS011;6647;53.688;10.746;2022-09-28T04:57:58;29.77;;;20.23;;
13163;SDS011;6647;53.688;10.746;2022-09-28T04:59:22;30.25;;;20.08;;
13163;SDS011;6647;53.688;10.746;2022-09-28T05:00:43;29.33;;;21.13;;
13163;SDS011;6647;53.688;10.746;2022-09-28T05:02:04;28.65;;;19.50;;
13163;SDS011;6647;53.688;10.746;2022-09-28T05:03:25;32.95;;;19.17;;
13163;SDS011;6647;53.688;10.746;2022-09-28T05:04:46;28.40;;;20.20;;
13163;SDS011;6647;53.688;10.746;2022-09-28T05:06:07;26.88;;;19.48;;
13163;SDS011;6647;53.688;10.746;2022-09-28T05:07:28;26.90;;;19.83;;
13163;SDS011;6647;53.688;10.746;2022-09-28T05:08:50;28.17;;;18.27;;
13163;SDS011;6647;53.688;10.746;2022-09-28T05:10:11;31.80;;;19.20;;
13163;SDS011;6647;53.688;10.746;2022-09-28T05:11:32;25.98;;;17.92;;
13163;SDS011;6647;53.688;10.746;2022-09-28T05:12:53;34.65;;;20.85;;
13163;SDS011;6647;53.688;10.746;2022-09-28T05:14:14;27.90;;;20.38;;
13163;SDS011;6647;53.688;10.746;2022-09-28T05:15:36;31.83;;;20.42;;
13163;SDS011;6647;53.688;10.746;2022-09-28T05:16:58;31.35;;;21.42;;
13163;SDS011;6647;53.688;10.746;2022-09-28T05:18:19;33.17;;;20.15;;
13163;SDS011;6647;53.688;10.746;2022-09-28T05:19:40;28.45;;;19.65;;
13163;SDS011;6647;53.688;10.746;2022-09-28T05:21:01;26.80;;;19.23;;
13163;SDS011;6647;53.688;10.746;2022-09-28T05:22:22;27.88;;;18.15;;
13163;SDS011;6647;53.688;10.746;2022-09-28T05:23:45;28.95;;;19.10;;
13163;SDS011;6647;53.688;10.746;2022-09-28T05:25:07;25.90;;;17.23;;
13163;SDS011;6647;53.688;10.746;2022-09-28T05:26:28;29.30;;;19.63;;
13163;SDS011;6647;53.688;10.746;2022-09-28T05:27:55;32.15;;;20.33;;
13163;SDS011;6647;53.688;10.746;2022-09-28T05:29:16;27.50;;;18.13;;
13163;SDS011;6647;53.688;10.746;2022-09-28T05:30:37;27.85;;;18.35;;
13163;SDS011;6647;53.688;10.746;2022-09-28T05:31:58;27.58;;;19.33;;
13163;SDS011;6647;53.688;10.746;2022-09-28T05:33:20;28.65;;;19.50;;
13163;SDS011;6647;53.688;10.746;2022-09-28T05:34:41;30.08;;;20.17;;
13163;SDS011;6647;53.688;10.746;2022-09-28T05:36:02;28.40;;;19.77;;
13163;SDS011;6647;53.688;10.746;2022-09-28T05:37:23;26.23;;;18.67;;
13163;SDS011;6647;53.688;10.746;2022-09-28T05:38:44;28.35;;;18.90;;
13163;SDS011;6647;53.688;10.746;2022-09-28T05:40:05;32.15;;;21.50;;
13163;SDS011;6647;53.688;10.746;2022-09-28T05:41:26;30.73;;;19.60;;
13163;SDS011;6647;53.688;10.746;2022-09-28T05:42:47;31.67;;;19.50;;
13163;SDS011;6647;53.688;10.746;2022-09-28T05:44:08;28.38;;;18.90;;
13163;SDS011;6647;53.688;10.746;2022-09-28T05:45:29;29.13;;;18.92;;
13163;SDS011;6647;53.688;10.746;2022-09-28T05:46:51;30.33;;;20.05;;
13163;SDS011;6647;53.688;10.746;2022-09-28T05:48:13;27.98;;;19.55;;
13163;SDS011;6647;53.688;10.746;2022-09-28T05:49:33;29.55;;;20.02;;
13163;SDS011;6647;53.688;10.746;2022-09-28T05:50:57;30.20;;;19.95;;
13163;SDS011;6647;53.688;10.746;2022-09-28T05:52:18;27.77;;;19.73;;
13163;SDS011;6647;53.688;10.746;2022-09-28T05:53:39;28.35;;;19.90;;
13163;SDS011;6647;53.688;10.746;2022-09-28T05:55:00;27.10;;;19.10;;
13163;SDS011;6647;53.688;10.746;2022-09-28T05:56:21;32.47;;;21.52;;
13163;SDS011;6647;53.688;10.746;2022-09-28T05:57:42;29.83;;;19.88;;
13163;SDS011;6647;53.688;10.746;2022-09-28T05:59:03;27.15;;;19.48;;
13163;SDS011;6647;53.688;10.746;2022-09-28T06:00:28;34.05;;;19.92;;
13163;SDS011;6647;53.688;10.746;2022-09-28T06:01:49;26.17;;;18.73;;
13163;SDS011;6647;53.688;10.746;2022-09-28T06:03:11;30.52;;;21.77;;
13163;SDS011;6647;53.688;10.746;2022-09-28T06:04:33;29.85;;;20.77;;
13163;SDS011;6647;53.688;10.746;2022-09-28T06:05:54;35.08;;;23.27;;
13163;SDS011;6647;53.688;10.746;2022-09-28T06:07:15;31.77;;;22.10;;
13163;SDS011;6647;53.688;10.746;2022-09-28T06:08:40;34.28;;;21.58;;
13163;SDS011;6647;53.688;10.746;2022-09-28T06:10:05;31.50;;;21.05;;
13163;SDS011;6647;53.688;10.746;2022-09-28T06:11:26;34.22;;;22.63;;
13163;SDS011;6647;53.688;10.746;2022-09-28T06:12:50;33.53;;;21.58;;
13163;SDS011;6647;53.688;10.746;2022-09-28T06:14:17;28.77;;;19.15;;
13163;SDS011;6647;53.688;10.746;2022-09-28T06:15:40;34.85;;;22.10;;
13163;SDS011;6647;53.688;10.746;2022-09-28T06:17:01;34.95;;;22.92;;
13163;SDS011;6647;53.688;10.746;2022-09-28T06:18:22;32.25;;;20.30;;
13163;SDS011;6647;53.688;10.746;2022-09-28T06:19:43;32.15;;;19.98;;
13163;SDS011;6647;53.688;10.746;2022-09-28T06:21:04;38.47;;;23.48;;
13163;SDS011;6647;53.688;10.746;2022-09-28T06:22:26;33.92;;;21.52;;
13163;SDS011;6647;53.688;10.746;2022-09-28T06:23:47;35.38;;;21.85;;
13163;SDS011;6647;53.688;10.746;2022-09-28T06:25:08;38.90;;;21.30;;
13163;SDS011;6647;53.688;10.746;2022-09-28T06:26:29;32.55;;;20.50;;
13163;SDS011;6647;53.688;10.746;2022-09-28T06:28:00;36.50;;;22.88;;
13163;SDS011;6647;53.688;10.746;2022-09-28T06:29:21;36.25;;;21.52;;
13163;SDS011;6647;53.688;10.746;2022-09-28T06:30:42;30.90;;;19.52;;
13163;SDS011;6647;53.688;10.746;2022-09-28T06:32:03;35.70;;;21.70;;
13163;SDS011;6647;53.688;10.746;2022-09-28T06:33:24;34.53;;;22.35;;
13163;SDS011;6647;53.688;10.746;2022-09-28T06:34:46;34.33;;;20.67;;
13163;SDS011;6647;53.688;10.746;2022-09-28T06:36:07;31.55;;;20.08;;
13163;SDS011;6647;53.688;10.746;2022-09-28T06:37:29;37.25;;;20.38;;
13163;SDS011;6647;53.688;10.746;2022-09-28T06:38:52;32.20;;;20.00;;
13163;SDS011;6647;53.688;10.746;2022-09-28T06:40:13;32.03;;;20.45;;
13163;SDS011;6647;53.688;10.746;2022-09-28T06:41:34;41.30;;;21.08;;
13163;SDS011;6647;53.688;10.746;2022-09-28T06:42:58;33.75;;;19.98;;
13163;SDS011;6647;53.688;10.746;2022-09-28T06:44:26;34.50;;;20.48;;
13163;SDS011;6647;53.688;10.746;2022-09-28T06:45:50;37.45;;;21.60;;
13163;SDS011;6647;53.688;10.746;2022-09-28T06:47:12;38.25;;;19.95;;
13163;SDS011;6647;53.688;10.746;2022-09-28T06:48:34;40.08;;;21.52;;
13163;SDS011;6647;53.688;10.746;2022-09-28T06:49:55;37.53;;;21.15;;
13163;SDS011;6647;53.688;10.746;2022-09-28T06:51:16;36.95;;;21.25;;
13163;SDS011;6647;53.688;10.746;2022-09-28T06:52:37;30.55;;;18.50;;
13163;SDS011;6647;53.688;10.746;2022-09-28T06:53:58;33.83;;;19.45;;
13163;SDS011;6647;53.688;10.746;2022-09-28T06:55:19;32.20;;;19.40;;
13163;SDS011;6647;53.688;10.746;2022-09-28T06:56:40;40.20;;;22.15;;
13163;SDS011;6647;53.688;10.746;2022-09-28T06:58:02;33.17;;;19.50;;
13163;SDS011;6647;53.688;10.746;2022-09-28T06:59:24;35.03;;;19.77;;
13163;SDS011;6647;53.688;10.746;2022-09-28T07:00:46;33.45;;;21.02;;
13163;SDS011;6647;53.688;10.746;2022-09-28T07:02:09;36.05;;;20.02;;
13163;SDS011;6647;53.688;10.746;2022-09-28T07:03:33;37.30;;;20.23;;
13163;SDS011;6647;53.688;10.746;2022-09-28T07:04:54;31.88;;;19.70;;
13163;SDS011;6647;53.688;10.746;2022-09-28T07:06:15;35.33;;;19.63;;
13163;SDS011;6647;53.688;10.746;2022-09-28T07:07:37;31.50;;;19.05;;
13163;SDS011;6647;53.688;10.746;2022-09-28T07:08:59;37.17;;;20.98;;
13163;SDS011;6647;53.688;10.746;2022-09-28T07:10:27;37.38;;;20.10;;
13163;SDS011;6647;53.688;10.746;2022-09-28T07:11:48;31.20;;;18.95;;
13163;SDS011;6647;53.688;10.746;2022-09-28T07:13:09;27.98;;;17.98;;
13163;SDS011;6647;53.688;10.746;2022-09-28T07:14:32;26.73;;;16.50;;
13163;SDS011;6647;53.688;10.746;2022-09-28T07:15:56;26.98;;;16.35;;
13163;SDS011;6647;53.688;10.746;2022-09-28T07:17:21;26.73;;;16.65;;
13163;SDS011;6647;53.688;10.746;2022-09-28T07:18:43;28.85;;;16.50;;
13163;SDS011;6647;53.688;10.746;2022-09-28T07:20:04;29.88;;;17.27;;
13163;SDS011;6647;53.688;10.746;2022-09-28T07:21:25;22.83;;;14.95;;
13163;SDS011;6647;53.688;10.746;2022-09-28T07:22:46;26.67;;;15.27;;
13163;SDS011;6647;53.688;10.746;2022-09-28T07:24:11;29.95;;;17.73;;
13163;SDS011;6647;53.688;10.746;2022-09-28T07:25:33;28.15;;;17.55;;
13163;SDS011;6647;53.688;10.746;2022-09-28T07:26:56;31.70;;;20.13;;
13163;SDS011;6647;53.688;10.746;2022-09-28T07:28:17;25.30;;;15.73;;
13163;SDS011;6647;53.688;10.746;2022-09-28T07:29:39;29.13;;;17.00;;
13163;SDS011;6647;53.688;10.746;2022-09-28T07:31:00;28.08;;;17.02;;
13163;SDS011;6647;53.688;10.746;2022-09-28T07:32:22;28.63;;;16.55;;
13163;SDS011;6647;53.688;10.746;2022-09-28T07:33:43;27.67;;;17.23;;
13163;SDS011;6647;53.688;10.746;2022-09-28T07:35:06;27.58;;;16.45;;
13163;SDS011;6647;53.688;10.746;2022-09-28T07:36:28;27.13;;;15.10;;
13163;SDS011;6647;53.688;10.746;2022-09-28T07:37:57;27.90;;;16.33;;
13163;SDS011;6647;53.688;10.746;2022-09-28T07:39:19;35.53;;;18.58;;
13163;SDS011;6647;53.688;10.746;2022-09-28T07:40:40;27.70;;;17.38;;
13163;SDS011;6647;53.688;10.746;2022-09-28T07:42:19;28.33;;;16.67;;
13163;SDS011;6647;53.688;10.746;2022-09-28T07:43:40;26.63;;;18.10;;
13163;SDS011;6647;53.688;10.746;2022-09-28T07:45:01;27.67;;;17.40;;
13163;SDS011;6647;53.688;10.746;2022-09-28T07:46:22;26.30;;;16.65;;
13163;SDS011;6647;53.688;10.746;2022-09-28T07:47:43;28.55;;;17.35;;
13163;SDS011;6647;53.688;10.746;2022-09-28T07:49:05;27.52;;;16.48;;
13163;SDS011;6647;53.688;10.746;2022-09-28T07:50:26;29.10;;;17.80;;
13163;SDS011;6647;53.688;10.746;2022-09-28T07:51:47;27.40;;;15.73;;
13163;SDS011;6647;53.688;10.746;2022-09-28T07:53:08;29.20;;;16.77;;
13163;SDS011;6647;53.688;10.746;2022-09-28T07:54:29;28.27;;;15.93;;
13163;SDS011;6647;53.688;10.746;2022-09-28T07:55:54;27.70;;;16.95;;
13163;SDS011;6647;53.688;10.746;2022-09-28T07:57:21;28.88;;;16.60;;
13163;SDS011;6647;53.688;10.746;2022-09-28T07:58:42;26.88;;;17.42;;
13163;SDS011;6647;53.688;10.746;2022-09-28T08:00:06;24.45;;;16.00;;
13163;SDS011;6647;53.688;10.746;2022-09-28T08:01:28;28.58;;;16.50;;
13163;SDS011;6647;53.688;10.746;2022-09-28T08:02:50;30.50;;;17.77;;
13163;SDS011;6647;53.688;10.746;2022-09-28T08:04:10;25.08;;;16.08;;
13163;SDS011;6647;53.688;10.746;2022-09-28T08:05:31;28.77;;;16.63;;
13163;SDS011;6647;53.688;10.746;2022-09-28T08:06:55;26.50;;;15.43;;
13163;SDS011;6647;53.688;10.746;2022-09-28T08:08:15;25.75;;;15.40;;
13163;SDS011;6647;53.688;10.746;2022-09-28T08:09:37;28.05;;;16.85;;
13163;SDS011;6647;53.688;10.746;2022-09-28T08:10:58;27.50;;;16.48;;
13163;SDS011;6647;53.688;10.746;2022-09-28T08:12:19;28.85;;;17.15;;
13163;SDS011;6647;53.688;10.746;2022-09-28T08:13:41;26.73;;;16.98;;
13163;SDS011;6647;53.688;10.746;2022-09-28T08:15:03;23.83;;;15.85;;
13163;SDS011;6647;53.688;10.746;2022-09-28T08:16:26;28.27;;;16.35;;
13163;SDS011;6647;53.688;10.746;2022-09-28T08:17:47;36.83;;;17.90;;
13163;SDS011;6647;53.688;10.746;2022-09-28T08:19:09;26.30;;;16.42;;
13163;SDS011;6647;53.688;10.746;2022-09-28T08:20:30;29.17;;;15.10;;
13163;SDS011;6647;53.688;10.746;2022-09-28T08:22:10;27.83;;;16.42;;
13163;SDS011;6647;53.688;10.746;2022-09-28T08:23:31;28.08;;;17.15;;
13163;SDS011;6647;53.688;10.746;2022-09-28T08:24:52;26.20;;;15.05;;
13163;SDS011;6647;53.688;10.746;2022-09-28T08:26:13;26.33;;;16.10;;
13163;SDS011;6647;53.688;10.746;2022-09-28T08:27:35;34.42;;;18.48;;
13163;SDS011;6647;53.688;10.746;2022-09-28T08:28:56;25.15;;;16.10;;
13163;SDS011;6647;53.688;10.746;2022-09-28T08:30:17;25.27;;;16.17;;